Time;durP1;ratioP1;P1;durP2;ratioP2;P2;SDS_P1;SDS_P2;PMS_P1;PMS_P2;Temp;Humidity;BMP_temperature;BMP_pressure;BME280_temperature;BME280_humidity;BME280_pressure;Samples;Min_cycle;Max_cycle;Signal;HPM_P1;HPM_P2
2022/05/15 00:02:37;;;;;;;3.80;3.50;;;17.10;45.60;;;;;;20625;6817;117446;-71
2022/05/15 00:05:12;;;;;;;4.05;3.75;;;17.00;46.00;;;;;;20656;6741;280816;-71
2022/05/15 00:07:48;;;;;;;3.75;3.50;;;17.40;45.60;;;;;;20581;6756;335725;-72
2022/05/15 00:10:23;;;;;;;5.83;3.20;;;17.80;44.90;;;;;;20747;6759;118034;-72
2022/05/15 00:13:00;;;;;;;3.80;3.40;;;17.40;45.80;;;;;;20815;6756;117151;-72
2022/05/15 00:15:35;;;;;;;3.90;3.70;;;17.40;45.10;;;;;;20595;6756;310878;-71
2022/05/15 00:18:11;;;;;;;5.00;3.10;;;17.50;44.30;;;;;;20793;6756;123155;-72
2022/05/15 00:20:47;;;;;;;3.23;2.93;;;17.40;44.50;;;;;;20562;6756;308138;-71
2022/05/15 00:23:22;;;;;;;4.23;3.20;;;17.50;44.50;;;;;;20546;6771;307763;-71
2022/05/15 00:25:58;;;;;;;3.78;3.47;;;18.00;42.40;;;;;;20549;6771;336671;-71
2022/05/15 00:28:34;;;;;;;3.35;3.08;;;18.00;42.40;;;;;;20578;6756;340572;-71
2022/05/15 00:31:10;;;;;;;3.37;3.07;;;18.10;42.50;;;;;;20744;6755;116942;-72
2022/05/15 00:33:48;;;;;;;3.30;2.95;;;17.80;43.00;;;;;;20600;6755;276800;-72
2022/05/15 00:36:21;;;;;;;2.90;2.70;;;17.80;43.10;;;;;;20607;6744;278540;-72
2022/05/15 00:38:58;;;;;;;3.30;3.00;;;17.90;43.00;;;;;;20613;6756;298292;-72
2022/05/15 00:41:33;;;;;;;3.97;2.77;;;17.80;43.00;;;;;;20692;6756;116953;-72
2022/05/15 00:44:08;;;;;;;3.40;3.10;;;17.70;42.90;;;;;;20579;6756;306448;-71
2022/05/15 00:46:44;;;;;;;3.13;2.83;;;17.70;43.20;;;;;;20641;6771;117742;-71
2022/05/15 00:49:19;;;;;;;3.43;3.13;;;17.50;43.80;;;;;;20612;6752;276759;-72
2022/05/15 00:51:58;;;;;;;3.17;2.90;;;17.50;43.30;;;;;;20530;6737;329201;-71
2022/05/15 00:54:37;;;;;;;5.03;2.80;;;17.70;43.10;;;;;;20423;6776;302771;-72
2022/05/15 00:57:15;;;;;;;4.00;2.90;;;17.80;42.50;;;;;;20538;6780;314862;-72
2022/05/15 00:59:51;;;;;;;4.90;3.00;;;17.90;42.10;;;;;;20676;6797;117243;-72
2022/05/15 01:02:26;;;;;;;2.90;2.50;;;17.50;42.70;;;;;;20533;6802;118584;-72
2022/05/15 01:05:02;;;;;;;3.20;2.90;;;17.10;43.70;;;;;;20584;6752;306649;-72
2022/05/15 01:07:38;;;;;;;3.25;2.95;;;17.10;43.40;;;;;;20503;6772;339586;-72
2022/05/15 01:10:13;;;;;;;3.20;2.90;;;17.40;43.00;;;;;;20532;6767;278655;-72
2022/05/15 01:12:49;;;;;;;3.50;2.90;;;17.50;42.70;;;;;;20576;6756;276527;-72
2022/05/15 01:15:24;;;;;;;2.60;2.50;;;17.60;42.80;;;;;;20789;6756;117022;-72
2022/05/15 01:18:00;;;;;;;3.53;2.80;;;17.30;43.40;;;;;;20793;6756;116949;-72
2022/05/15 01:20:35;;;;;;;3.07;2.77;;;16.90;44.10;;;;;;20761;6756;117305;-72
2022/05/15 01:23:11;;;;;;;3.53;3.00;;;16.60;44.70;;;;;;20533;6771;282475;-72
2022/05/15 01:25:47;;;;;;;3.40;3.20;;;16.80;44.10;;;;;;20575;6756;306464;-72
2022/05/15 01:28:22;;;;;;;2.90;2.73;;;17.10;43.80;;;;;;20780;6756;117498;-71
2022/05/15 01:30:58;;;;;;;4.00;3.40;;;16.50;45.30;;;;;;20727;6756;117078;-72
2022/05/15 01:33:34;;;;;;;3.33;3.03;;;16.50;44.80;;;;;;20822;6744;117845;-72
2022/05/15 01:36:12;;;;;;;3.75;3.37;;;16.40;45.30;;;;;;20506;6761;305970;-71
2022/05/15 01:38:48;;;;;;;4.07;3.30;;;16.30;45.40;;;;;;20746;6772;117500;-71
2022/05/15 01:41:24;;;;;;;3.83;3.47;;;16.30;45.40;;;;;;20462;6748;309988;-72
2022/05/15 01:43:59;;;;;;;3.53;3.20;;;16.50;45.80;;;;;;20848;6736;117888;-72
2022/05/15 01:46:35;;;;;;;3.57;3.30;;;16.40;46.00;;;;;;20699;6721;296512;-72
2022/05/15 01:49:13;;;;;;;3.50;3.30;;;16.60;45.50;;;;;;20912;6722;117262;-72
2022/05/15 01:51:46;;;;;;;3.75;3.45;;;16.50;45.80;;;;;;20531;6733;307863;-72
2022/05/15 01:54:22;;;;;;;3.80;3.40;;;16.60;45.60;;;;;;20799;6751;117581;-72
2022/05/15 01:56:57;;;;;;;3.53;3.23;;;16.50;45.80;;;;;;20779;6766;118211;-72
2022/05/15 01:59:33;;;;;;;3.70;3.43;;;15.90;46.00;;;;;;20813;6752;116937;-72
2022/05/15 02:02:09;;;;;;;4.30;3.80;;;15.90;46.60;;;;;;20360;6785;310558;-71
2022/05/15 02:04:45;;;;;;;3.90;3.60;;;16.20;46.60;;;;;;20923;6722;117043;-72
2022/05/15 02:07:20;;;;;;;4.50;4.10;;;16.10;46.40;;;;;;20907;6722;117968;-72
2022/05/15 02:09:56;;;;;;;4.23;3.87;;;16.10;46.50;;;;;;20693;6722;276166;-71
2022/05/15 02:12:32;;;;;;;4.57;4.18;;;16.10;46.50;;;;;;20447;6796;326893;-71
2022/05/15 02:15:09;;;;;;;3.90;3.60;;;16.40;46.10;;;;;;20813;6754;117559;-72
2022/05/15 02:17:44;;;;;;;4.33;4.03;;;16.30;46.00;;;;;;20775;6766;122810;-72
2022/05/15 02:20:20;;;;;;;4.90;4.50;;;16.10;46.50;;;;;;20561;6748;284696;-71
2022/05/15 02:22:56;;;;;;;3.83;3.63;;;16.20;46.00;;;;;;20924;6722;116938;-71
2022/05/15 02:25:31;;;;;;;4.20;3.83;;;16.10;46.10;;;;;;20782;6766;117482;-72
2022/05/15 02:28:07;;;;;;;3.93;3.63;;;15.90;46.60;;;;;;20814;6752;117554;-71
2022/05/15 02:30:43;;;;;;;4.43;4.03;;;15.90;47.10;;;;;;20567;6745;312031;-71
2022/05/15 02:33:19;;;;;;;4.50;4.20;;;15.90;46.70;;;;;;20643;6740;306267;-71
2022/05/15 02:35:54;;;;;;;4.40;4.20;;;16.30;46.60;;;;;;20585;6755;307011;-71
2022/05/15 02:38:31;;;;;;;4.00;3.70;;;16.30;46.10;;;;;;20785;6755;119307;-71
2022/05/15 02:41:06;;;;;;;4.23;3.60;;;16.30;46.10;;;;;;20727;6755;117578;-71
2022/05/15 02:43:42;;;;;;;3.73;3.50;;;16.00;46.60;;;;;;20812;6752;118362;-71
2022/05/15 02:46:17;;;;;;;4.00;3.70;;;15.80;47.30;;;;;;20892;6722;116963;-71
2022/05/15 02:51:49;;;;;;;4.00;3.80;;;15.80;47.00;;;;;;20511;6749;308891;-71
2022/05/15 02:54:25;;;;;;;3.50;3.30;;;15.80;47.00;;;;;;20801;6748;117623;-71
2022/05/15 02:57:00;;;;;;;4.00;3.60;;;15.80;47.10;;;;;;20821;6746;116885;-72
2022/05/15 02:59:37;;;;;;;3.97;3.67;;;15.70;47.70;;;;;;20492;6766;278474;-71
2022/05/15 03:02:11;;;;;;;3.80;3.20;;;15.90;48.80;;;;;;20685;6737;119807;-71
2022/05/15 03:04:49;;;;;;;3.67;3.37;;;15.80;48.60;;;;;;20827;6751;117135;-71
2022/05/15 03:07:22;;;;;;;4.00;3.63;;;15.60;48.20;;;;;;20820;6751;122981;-71
2022/05/15 03:09:58;;;;;;;3.70;3.50;;;15.40;48.40;;;;;;20731;6770;117160;-71
2022/05/15 03:12:34;;;;;;;4.57;3.80;;;15.20;48.50;;;;;;20323;6845;279420;-71
2022/05/15 03:15:12;;;;;;;3.30;3.10;;;15.50;47.40;;;;;;20832;6737;117864;-71
2022/05/15 03:17:45;;;;;;;4.40;3.97;;;15.50;47.70;;;;;;20580;6748;339364;-70
2022/05/15 03:20:21;;;;;;;4.57;3.30;;;15.70;47.00;;;;;;20568;6748;306702;-72
2022/05/15 03:22:56;;;;;;;7.10;6.70;;;16.00;46.90;;;;;;20706;6722;276772;-71
2022/05/15 03:25:34;;;;;;;4.30;4.00;;;16.30;46.20;;;;;;20555;6766;311090;-71
2022/05/15 03:28:09;;;;;;;3.93;3.63;;;16.50;45.20;;;;;;20776;6763;117750;-71
2022/05/15 03:30:44;;;;;;;3.60;3.40;;;16.20;45.80;;;;;;20755;6764;123976;-71
2022/05/15 03:33:20;;;;;;;3.20;3.00;;;15.70;46.50;;;;;;20892;6722;117427;-71
2022/05/15 03:35:55;;;;;;;3.90;3.50;;;15.40;47.10;;;;;;20538;6763;281917;-71
2022/05/15 03:38:31;;;;;;;3.80;3.50;;;15.60;47.50;;;;;;20600;6763;279770;-70
2022/05/15 03:41:07;;;;;;;3.43;3.23;;;16.00;47.00;;;;;;20678;6763;117199;-71
2022/05/15 03:43:43;;;;;;;3.58;3.28;;;15.90;47.00;;;;;;20662;6722;277200;-71
2022/05/15 03:46:18;;;;;;;3.63;3.33;;;16.10;47.00;;;;;;20854;6733;119445;-71
2022/05/15 03:48:54;;;;;;;3.30;3.10;;;15.90;47.10;;;;;;20816;6741;118597;-71
2022/05/15 03:51:30;;;;;;;3.57;3.27;;;15.70;47.70;;;;;;20643;6760;117172;-70
2022/05/15 03:54:05;;;;;;;3.10;2.90;;;15.50;48.00;;;;;;20718;6748;117705;-71
2022/05/15 03:56:50;;;;;;;3.30;3.10;;;15.30;48.10;;;;;;20783;6763;117896;-71
2022/05/15 03:59:27;;;;;;;3.40;3.20;;;15.10;48.10;;;;;;20629;6748;321984;-71
2022/05/15 04:02:01;;;;;;;3.17;2.97;;;15.40;47.10;;;;;;20657;6752;117146;-72
2022/05/15 04:04:37;;;;;;;4.35;3.58;;;15.40;47.40;;;;;;20605;6751;283480;-71
2022/05/15 04:07:13;;;;;;;3.10;2.90;;;15.60;46.60;;;;;;20918;6722;116961;-72
2022/05/15 04:09:48;;;;;;;3.50;3.30;;;15.60;46.70;;;;;;20774;6765;117009;-72
2022/05/15 04:12:24;;;;;;;3.43;3.13;;;15.40;47.20;;;;;;20670;6751;118068;-72
2022/05/15 04:15:00;;;;;;;3.40;3.20;;;15.20;47.60;;;;;;20574;6763;337876;-72
2022/05/15 04:17:44;;;;;;;3.20;3.00;;;15.50;47.40;;;;;;20771;6766;117505;-71
2022/05/15 04:20:19;;;;;;;3.40;3.20;;;15.50;47.40;;;;;;20561;6748;311533;-72
2022/05/15 04:22:56;;;;;;;3.42;3.12;;;16.20;47.50;;;;;;20565;6763;307696;-71
2022/05/15 04:25:31;;;;;;;3.93;2.80;;;16.20;47.20;;;;;;20826;6748;117250;-72
2022/05/15 04:28:07;;;;;;;3.62;3.37;;;16.10;47.30;;;;;;20536;6763;309228;-72
2022/05/15 04:30:43;;;;;;;3.03;2.70;;;15.80;47.10;;;;;;20747;6756;119717;-71
2022/05/15 04:33:19;;;;;;;3.33;3.03;;;15.80;47.10;;;;;;20617;6748;306660;-72
2022/05/15 04:35:55;;;;;;;3.27;2.97;;;15.70;47.30;;;;;;20812;6748;121433;-72
2022/05/15 04:38:32;;;;;;;3.23;2.90;;;15.60;47.20;;;;;;20600;6752;294908;-72
2022/05/15 04:41:07;;;;;;;3.87;2.83;;;15.80;47.00;;;;;;20748;6748;119429;-71
2022/05/15 04:43:43;;;;;;;3.30;3.10;;;15.70;47.30;;;;;;20614;6748;276330;-72
2022/05/15 04:46:21;;;;;;;3.43;2.90;;;15.70;46.90;;;;;;20856;6733;117968;-72
2022/05/15 04:48:55;;;;;;;2.90;2.70;;;15.70;46.90;;;;;;20664;6733;279592;-72
2022/05/15 04:51:31;;;;;;;3.37;3.07;;;15.80;46.90;;;;;;20710;6752;117477;-71
2022/05/15 04:54:06;;;;;;;3.07;2.87;;;15.80;47.20;;;;;;20859;6733;117442;-72
2022/05/15 04:56:42;;;;;;;6.73;2.90;;;15.50;47.60;;;;;;20885;6733;117333;-72
2022/05/15 04:59:17;;;;;;;3.92;3.10;;;15.30;48.00;;;;;;20618;6752;280452;-72
2022/05/15 05:01:53;;;;;;;3.97;2.73;;;15.60;47.30;;;;;;20748;6733;117664;-72
2022/05/15 05:04:28;;;;;;;4.07;3.10;;;15.60;47.10;;;;;;20829;6748;116857;-72
2022/05/15 05:07:04;;;;;;;2.97;2.78;;;15.50;47.60;;;;;;20631;6748;336302;-72
2022/05/15 05:09:39;;;;;;;2.90;2.70;;;15.70;47.60;;;;;;20634;6748;307662;-72
2022/05/15 05:12:15;;;;;;;3.00;2.80;;;16.10;46.90;;;;;;20377;6767;322808;-71
2022/05/15 05:14:51;;;;;;;3.67;2.90;;;16.40;46.50;;;;;;20719;6781;116196;-74
2022/05/15 05:17:26;;;;;;;3.13;2.83;;;16.40;46.80;;;;;;20775;6766;117591;-74
2022/05/15 05:20:02;;;;;;;3.40;3.20;;;16.10;47.30;;;;;;20531;6771;297420;-73
2022/05/15 05:22:38;;;;;;;3.90;3.07;;;16.20;47.30;;;;;;20773;6768;117396;-72
2022/05/15 05:25:13;;;;;;;3.87;3.60;;;16.10;47.50;;;;;;20745;6779;118732;-74
2022/05/15 05:27:49;;;;;;;3.60;3.30;;;15.90;48.10;;;;;;20791;6760;116944;-73
2022/05/15 05:30:24;;;;;;;3.55;3.25;;;15.70;48.60;;;;;;20613;6752;278830;-73
2022/05/15 05:33:00;;;;;;;3.30;3.10;;;15.90;48.50;;;;;;20596;6750;307925;-72
2022/05/15 05:35:35;;;;;;;3.20;3.00;;;16.30;48.10;;;;;;20734;6795;117186;-75
2022/05/15 05:38:11;;;;;;;3.50;3.20;;;16.30;48.20;;;;;;20476;6797;311878;-72
2022/05/15 05:40:47;;;;;;;3.70;3.40;;;16.50;47.90;;;;;;20443;6781;309508;-73
2022/05/15 05:43:22;;;;;;;2.87;2.77;;;16.80;47.60;;;;;;20761;6769;117053;-72
2022/05/15 05:45:58;;;;;;;3.30;3.00;;;16.80;47.80;;;;;;20682;6798;117943;-75
2022/05/15 05:48:33;;;;;;;3.58;3.28;;;16.50;48.20;;;;;;20520;6772;278460;-72
2022/05/15 05:51:09;;;;;;;4.00;3.70;;;16.80;48.40;;;;;;20445;6780;295894;-73
2022/05/15 05:53:45;;;;;;;3.20;3.00;;;17.20;47.80;;;;;;20861;6742;117052;-71
2022/05/15 05:56:20;;;;;;;3.70;3.50;;;17.10;47.80;;;;;;20594;6757;334909;-76
2022/05/15 05:58:56;;;;;;;3.70;3.40;;;17.40;47.70;;;;;;20624;6750;309226;-75
2022/05/15 06:01:32;;;;;;;3.50;3.20;;;17.90;46.80;;;;;;20548;6744;310111;-72
2022/05/15 06:07:03;;;;;;;4.70;3.10;;;17.80;47.20;;;;;;20824;6749;122897;-75
2022/05/15 06:09:39;;;;;;;4.60;2.93;;;17.60;47.90;;;;;;20838;6744;123339;-74
2022/05/15 06:12:15;;;;;;;3.77;3.07;;;17.50;48.50;;;;;;20617;6724;119766;-73
2022/05/15 06:14:51;;;;;;;3.30;3.10;;;17.50;48.70;;;;;;20638;6739;316373;-73
2022/05/15 06:17:27;;;;;;;3.30;2.90;;;17.80;47.70;;;;;;20822;6739;117501;-72
2022/05/15 06:20:06;;;;;;;2.90;2.70;;;18.00;47.70;;;;;;20786;6747;117473;-73
2022/05/15 06:22:44;;;;;;;3.50;3.20;;;17.90;48.00;;;;;;20831;6747;117656;-72
2022/05/15 06:25:17;;;;;;;4.70;2.87;;;18.00;48.60;;;;;;20846;6738;117829;-72
2022/05/15 06:27:52;;;;;;;3.03;2.83;;;18.20;49.20;;;;;;20861;6738;117893;-72
2022/05/15 06:30:28;;;;;;;3.20;3.00;;;18.70;49.60;;;;;;20560;6758;283656;-72
2022/05/15 06:33:04;;;;;;;2.83;2.62;;;20.80;45.10;;;;;;20674;6744;339485;-71
2022/05/15 06:35:40;;;;;;;3.00;2.80;;;20.70;45.00;;;;;;20819;6761;117121;-72
2022/05/15 06:38:15;;;;;;;3.10;2.90;;;21.40;45.50;;;;;;20627;6739;277244;-72
2022/05/15 06:40:51;;;;;;;3.90;2.90;;;22.20;42.80;;;;;;20566;6742;342390;-72
2022/05/15 06:43:27;;;;;;;3.23;2.93;;;23.10;41.50;;;;;;20641;6742;305437;-72
2022/05/15 06:46:02;;;;;;;3.17;2.80;;;23.90;40.30;;;;;;20860;6739;117036;-71
2022/05/15 06:48:39;;;;;;;2.93;2.60;;;24.00;40.70;;;;;;20820;6739;117964;-71
2022/05/15 06:51:16;;;;;;;3.27;2.80;;;24.00;41.20;;;;;;20758;6739;118421;-71
2022/05/15 06:53:49;;;;;;;3.50;2.80;;;24.00;41.40;;;;;;20659;6730;290784;-71
2022/05/15 06:59:21;;;;;;;3.10;2.90;;;24.50;39.90;;;;;;20590;6757;312524;-71
2022/05/15 07:01:56;;;;;;;3.63;3.07;;;24.90;38.50;;;;;;20659;6757;117531;-71
2022/05/15 07:04:32;;;;;;;6.47;3.17;;;24.80;39.20;;;;;;20785;6754;118832;-71
2022/05/15 07:07:08;;;;;;;3.60;3.30;;;24.60;39.70;;;;;;20628;6748;296864;-71
2022/05/15 07:09:44;;;;;;;3.40;2.90;;;25.00;37.60;;;;;;20510;6751;277472;-72
2022/05/15 07:12:22;;;;;;;5.07;2.80;;;25.00;37.60;;;;;;20639;6754;117767;-72
2022/05/15 07:14:56;;;;;;;5.93;3.10;;;24.60;38.90;;;;;;20895;6728;116950;-71
2022/05/15 07:17:31;;;;;;;3.83;2.97;;;24.60;38.90;;;;;;20674;6728;334793;-72
2022/05/15 07:20:07;;;;;;;3.10;2.90;;;24.70;37.90;;;;;;20583;6747;279351;-72
2022/05/15 07:22:43;;;;;;;3.20;3.00;;;24.90;35.70;;;;;;20715;6719;305220;-70
2022/05/15 07:25:18;;;;;;;4.10;2.83;;;25.10;37.20;;;;;;20730;6719;278389;-71
2022/05/15 07:27:54;;;;;;;3.40;3.10;;;25.30;36.90;;;;;;20624;6749;306394;-72
2022/05/15 07:30:29;;;;;;;3.40;3.10;;;25.50;34.90;;;;;;20666;6782;117444;-71
2022/05/15 07:33:05;;;;;;;2.83;2.63;;;25.30;36.10;;;;;;20756;6784;118286;-73
2022/05/15 07:35:41;;;;;;;3.30;3.00;;;25.00;36.70;;;;;;20541;6777;282434;-73
2022/05/15 07:38:16;;;;;;;3.12;2.70;;;25.10;36.40;;;;;;20579;6761;309929;-73
2022/05/15 07:40:52;;;;;;;4.07;2.70;;;25.40;35.50;;;;;;20752;6746;117933;-72
2022/05/15 07:43:33;;;;;;;2.93;2.67;;;25.30;36.30;;;;;;20861;6746;119876;-72
2022/05/15 07:46:04;;;;;;;3.03;2.80;;;25.20;36.50;;;;;;20632;6746;314409;-72
2022/05/15 07:48:39;;;;;;;53.53;48.27;;;25.20;36.50;;;;;;20851;6746;117158;-72
2022/05/15 07:51:15;;;;;;;3.70;2.70;;;25.30;36.90;;;;;;20752;6746;118491;-71
2022/05/15 07:53:51;;;;;;;3.33;3.07;;;25.20;37.80;;;;;;20839;6746;118648;-71
2022/05/15 07:56:27;;;;;;;4.40;4.00;;;25.20;37.70;;;;;;20624;6746;306687;-72
2022/05/15 07:59:02;;;;;;;3.20;2.90;;;25.60;37.50;;;;;;20840;6746;119044;-71
2022/05/15 08:01:38;;;;;;;3.37;2.57;;;25.80;37.90;;;;;;20718;6746;117051;-71
2022/05/15 08:04:13;;;;;;;2.50;2.40;;;25.70;37.50;;;;;;20828;6746;119919;-72
2022/05/15 08:09:45;;;;;;;3.35;2.85;;;26.00;36.20;;;;;;20631;6746;302698;-71
2022/05/15 08:12:20;;;;;;;3.37;2.80;;;26.50;35.30;;;;;;20440;6746;309028;-71
2022/05/15 08:14:56;;;;;;;2.73;2.40;;;26.70;35.00;;;;;;20848;6746;116980;-72
2022/05/15 08:17:31;;;;;;;4.37;2.80;;;26.60;35.50;;;;;;20838;6746;117534;-72
2022/05/15 08:25:59;;;;;;;2.55;2.20;;;26.70;36.20;;;;;;20633;6746;329052;-70
2022/05/15 08:28:34;;;;;;;2.83;2.30;;;27.00;34.80;;;;;;20841;6746;116847;-70
2022/05/15 08:31:11;;;;;;;4.33;2.63;;;27.40;33.70;;;;;;20558;6746;278253;-70
2022/05/15 08:33:46;;;;;;;3.33;2.23;;;27.30;33.60;;;;;;20853;6746;117092;-70
2022/05/15 08:36:22;;;;;;;2.90;2.60;;;27.40;34.40;;;;;;20621;6746;306759;-71
2022/05/15 08:38:57;;;;;;;2.70;2.33;;;27.50;33.90;;;;;;20848;6746;117126;-71
2022/05/15 08:41:40;;;;;;;3.77;2.03;;;27.50;34.60;;;;;;20708;6743;118149;-71
2022/05/15 08:44:22;;;;;;;2.60;2.40;;;27.30;34.60;;;;;;20253;6814;118987;-71
2022/05/15 08:47:10;;;;;;;3.23;2.83;;;27.10;35.20;;;;;;20573;6763;298953;-70
2022/05/15 08:49:49;;;;;;;2.80;2.60;;;27.40;35.60;;;;;;20775;6777;118179;-71
2022/05/15 08:52:24;;;;;;;3.77;2.50;;;27.40;36.10;;;;;;20590;6760;118739;-71
2022/05/15 08:55:16;;;;;;;4.33;2.83;;;27.30;36.50;;;;;;20579;6762;307223;-71
2022/05/15 08:57:55;;;;;;;4.00;2.60;;;27.60;35.80;;;;;;20840;6746;117388;-71
2022/05/15 09:00:42;;;;;;;3.93;2.57;;;27.70;35.90;;;;;;20797;6746;119562;-71
2022/05/15 09:03:23;;;;;;;3.57;2.20;;;27.60;36.20;;;;;;20837;6746;117335;-71
2022/05/15 09:06:05;;;;;;;6.53;2.23;;;27.50;36.20;;;;;;20846;6746;121437;-70
2022/05/15 09:08:54;;;;;;;4.70;2.40;;;27.40;36.00;;;;;;20638;6746;306127;-71
2022/05/15 09:11:30;;;;;;;2.00;1.90;;;27.70;34.50;;;;;;20737;6746;117000;-71
2022/05/15 09:14:42;;;;;;;2.53;2.33;;;27.70;35.10;;;;;;20825;6746;143676;-72
2022/05/15 09:17:35;;;;;;;2.20;2.00;;;28.10;33.00;;;;;;20611;6746;276206;-71
2022/05/15 09:20:50;;;;;;;5.63;2.10;;;28.10;33.00;;;;;;20792;6746;118042;-71
2022/05/15 09:23:26;;;;;;;2.97;2.03;;;28.20;34.10;;;;;;20820;6746;116919;-70
2022/05/15 09:26:15;;;;;;;2.37;2.17;;;28.40;33.40;;;;;;20636;6746;276762;-70
2022/05/15 09:29:01;;;;;;;2.43;2.23;;;28.40;33.40;;;;;;20481;6758;306534;-70
2022/05/15 09:31:42;;;;;;;2.90;2.10;;;29.00;33.10;;;;;;20682;6758;117072;-70
2022/05/15 09:34:26;;;;;;;2.00;1.90;;;29.00;33.10;;;;;;20824;6746;117907;-71
2022/05/15 09:39:50;;;;;;;2.40;2.20;;;29.10;32.20;;;;;;19612;7072;310473;-71
2022/05/15 09:45:22;;;;;;;2.50;2.10;;;29.50;31.50;;;;;;20780;6753;117316;-70
2022/05/15 09:47:58;;;;;;;2.50;2.20;;;29.20;32.00;;;;;;20841;6742;117992;-70
2022/05/15 09:50:40;;;;;;;2.00;1.90;;;29.10;31.90;;;;;;20584;6740;317168;-70
2022/05/15 09:53:22;;;;;;;1.90;1.80;;;29.30;31.30;;;;;;20798;6753;122794;-71
2022/05/15 09:56:01;;;;;;;2.22;2.03;;;29.40;31.40;;;;;;20640;6738;334797;-70
2022/05/15 09:58:36;;;;;;;2.90;1.80;;;29.50;30.00;;;;;;20672;6738;276648;-71
2022/05/15 10:01:23;;;;;;;2.20;2.10;;;29.60;29.20;;;;;;20747;6749;120808;-71
2022/05/15 10:03:59;;;;;;;3.40;1.87;;;29.60;29.60;;;;;;20655;6744;305578;-74
2022/05/15 10:06:37;;;;;;;2.00;1.90;;;29.50;29.20;;;;;;20905;6726;117246;-72
2022/05/15 10:09:14;;;;;;;2.43;2.13;;;29.30;29.00;;;;;;20604;6810;304482;-72
2022/05/15 10:11:49;;;;;;;2.33;2.13;;;29.40;28.80;;;;;;20786;6730;116907;-72
2022/05/15 10:14:25;;;;;;;3.90;2.17;;;29.40;29.60;;;;;;20615;6745;405991;-72
2022/05/15 10:17:00;;;;;;;2.43;2.10;;;29.40;29.30;;;;;;20656;6745;307329;-72
2022/05/15 10:19:52;;;;;;;2.17;2.00;;;29.60;30.50;;;;;;20863;6745;117337;-71
2022/05/15 10:22:45;;;;;;;3.93;2.10;;;29.60;30.40;;;;;;20656;6745;118251;-71
2022/05/15 10:25:48;;;;;;;2.03;1.70;;;29.20;31.20;;;;;;20807;6747;116893;-68
2022/05/15 10:28:37;;;;;;;2.40;2.07;;;29.20;31.20;;;;;;20779;6760;117969;-71
2022/05/15 10:31:07;;;;;;;1.90;1.80;;;29.10;31.40;;;;;;20805;6747;116834;-72
2022/05/15 10:33:42;;;;;;;2.23;2.03;;;29.10;31.40;;;;;;20815;6794;117824;-71
2022/05/15 10:36:25;;;;;;;2.43;1.90;;;29.10;31.20;;;;;;20683;6737;308430;-70
2022/05/15 10:39:03;;;;;;;2.33;1.77;;;29.30;29.60;;;;;;20865;6758;121873;-71
2022/05/15 10:41:41;;;;;;;2.27;2.00;;;29.40;30.10;;;;;;20552;6751;278182;-71
2022/05/15 10:44:30;;;;;;;3.08;2.20;;;29.60;28.80;;;;;;20644;6751;278094;-73
2022/05/15 10:47:12;;;;;;;2.03;1.77;;;29.90;29.10;;;;;;20875;6751;118593;-71
2022/05/15 10:49:48;;;;;;;2.17;1.97;;;29.70;29.70;;;;;;20679;6751;298926;-71
2022/05/15 10:52:40;;;;;;;1.90;1.70;;;29.80;29.10;;;;;;20697;6751;118170;-72
2022/05/15 10:58:50;;;;;;;3.80;1.83;;;29.60;30.60;;;;;;19818;7081;119493;-72
2022/05/15 11:01:29;;;;;;;3.83;2.10;;;29.40;30.60;;;;;;19526;7081;319623;-70
2022/05/15 11:04:07;;;;;;;4.37;2.00;;;29.70;29.60;;;;;;20321;6822;119979;-72
2022/05/15 11:06:50;;;;;;;4.23;1.63;;;29.50;29.60;;;;;;20525;6828;117317;-72
2022/05/15 11:09:44;;;;;;;1.70;1.60;;;29.40;30.50;;;;;;20824;6757;118915;-72
2022/05/15 11:12:30;;;;;;;2.27;2.00;;;29.30;30.50;;;;;;20624;6760;120736;-72
2022/05/15 11:15:13;;;;;;;2.20;2.00;;;29.30;30.30;;;;;;20612;6763;306230;-72
2022/05/15 11:17:54;;;;;;;2.90;1.80;;;29.50;29.30;;;;;;20576;6763;285032;-70
2022/05/15 11:20:30;;;;;;;2.12;1.60;;;30.00;28.70;;;;;;20525;6774;313619;-71
2022/05/15 11:23:16;;;;;;;2.03;1.80;;;30.20;28.50;;;;;;20877;6743;118531;-70
2022/05/15 11:25:52;;;;;;;1.90;1.70;;;30.10;28.90;;;;;;20655;6744;276976;-71
2022/05/15 11:28:33;;;;;;;2.37;2.00;;;30.20;28.50;;;;;;20602;6744;300440;-70
2022/05/15 11:31:09;;;;;;;2.17;2.03;;;30.30;27.50;;;;;;20583;6744;307859;-71
2022/05/15 11:33:50;;;;;;;2.03;1.83;;;30.40;28.10;;;;;;20661;6744;278915;-71
2022/05/15 11:36:30;;;;;;;3.00;1.70;;;30.50;28.80;;;;;;20625;6744;294458;-71
2022/05/15 11:39:15;;;;;;;1.67;1.57;;;30.60;28.60;;;;;;20869;6744;117046;-72
2022/05/15 11:42:10;;;;;;;1.93;1.83;;;30.50;28.70;;;;;;20733;6744;117349;-69
2022/05/15 11:44:46;;;;;;;2.47;2.05;;;30.20;29.20;;;;;;20701;6729;313722;-70
2022/05/15 11:47:26;;;;;;;2.45;1.90;;;30.30;28.40;;;;;;20649;6744;306456;-72
2022/05/15 11:50:03;;;;;;;3.43;1.90;;;30.30;28.40;;;;;;20863;6744;116965;-72
2022/05/15 11:52:53;;;;;;;4.37;1.97;;;30.30;28.60;;;;;;20666;6800;117654;-75
2022/05/15 11:55:36;;;;;;;2.30;1.80;;;30.10;29.70;;;;;;20607;6759;282442;-73
2022/05/15 11:58:31;;;;;;;2.47;2.27;;;30.30;28.80;;;;;;20583;6759;310321;-72
2022/05/15 12:01:24;;;;;;;1.70;1.60;;;30.50;27.00;;;;;;20527;6759;305487;-73
2022/05/15 12:04:00;;;;;;;1.77;1.67;;;30.50;27.00;;;;;;20771;6770;117259;-72
2022/05/15 12:06:49;;;;;;;4.10;1.73;;;30.30;27.70;;;;;;20459;6798;311710;-73
2022/05/15 12:09:41;;;;;;;2.57;1.87;;;30.20;27.70;;;;;;20697;6838;121492;-73
2022/05/15 12:12:33;;;;;;;2.07;1.77;;;30.00;28.20;;;;;;20418;6767;279520;-73
2022/05/15 12:15:18;;;;;;;2.73;1.90;;;30.00;28.00;;;;;;20784;6759;117145;-73
2022/05/15 12:17:50;;;;;;;2.23;1.80;;;29.90;28.30;;;;;;20708;6787;117185;-73
2022/05/15 12:20:28;;;;;;;2.17;1.93;;;29.60;28.60;;;;;;20640;6793;121010;-73
2022/05/15 12:23:17;;;;;;;2.43;1.73;;;29.40;29.10;;;;;;20714;6793;117204;-73
2022/05/15 12:25:59;;;;;;;1.87;1.77;;;29.30;29.20;;;;;;20711;6793;119260;-73
2022/05/15 12:28:51;;;;;;;1.80;1.70;;;29.10;29.00;;;;;;20699;6779;117272;-74
2022/05/15 12:31:27;;;;;;;2.80;1.80;;;29.00;29.20;;;;;;20172;6821;279331;-72
2022/05/15 12:34:05;;;;;;;1.90;1.70;;;29.30;28.70;;;;;;20549;6771;281113;-73
2022/05/15 12:36:44;;;;;;;2.55;1.83;;;29.60;28.40;;;;;;20556;6771;310477;-72
2022/05/15 12:39:22;;;;;;;2.12;1.90;;;29.90;28.50;;;;;;20555;6771;306042;-72
2022/05/15 12:41:58;;;;;;;2.05;1.83;;;30.10;28.00;;;;;;20379;6771;308457;-73
2022/05/15 12:44:33;;;;;;;2.25;2.00;;;30.10;27.90;;;;;;20508;6777;341688;-72
2022/05/15 12:47:14;;;;;;;1.80;1.70;;;30.30;27.50;;;;;;20778;6772;118216;-72
2022/05/15 12:49:54;;;;;;;3.00;2.00;;;30.00;28.20;;;;;;20731;6780;118221;-71
2022/05/15 12:52:25;;;;;;;3.37;1.97;;;29.70;28.90;;;;;;20606;6751;118800;-72
2022/05/15 12:55:00;;;;;;;1.80;1.70;;;29.50;29.50;;;;;;20803;6762;117622;-72
2022/05/15 12:57:43;;;;;;;2.13;1.93;;;29.30;29.20;;;;;;20577;6763;278022;-72
2022/05/15 13:11:19;;;;;;;3.33;2.00;;;30.30;27.90;;;;;;21163;6505;90053;-70
2022/05/15 13:13:45;;;;;;;2.12;1.80;;;30.10;27.90;;;;;;20424;6866;343080;-72
2022/05/15 13:16:10;;;;;;;2.27;1.90;;;30.00;27.70;;;;;;20632;6862;117906;-72
2022/05/15 13:18:36;;;;;;;2.10;1.67;;;29.90;28.20;;;;;;20569;6877;118578;-72
2022/05/15 13:21:05;;;;;;;1.90;1.80;;;29.70;28.40;;;;;;20407;6877;310048;-72
2022/05/15 13:23:31;;;;;;;1.50;1.40;;;29.60;28.00;;;;;;20617;6877;117649;-72
2022/05/15 13:25:57;;;;;;;3.00;2.20;;;29.60;27.90;;;;;;20582;6862;117426;-72
2022/05/15 13:28:23;;;;;;;2.13;1.67;;;29.30;28.40;;;;;;20580;6877;118008;-72
2022/05/15 13:30:49;;;;;;;1.90;1.80;;;29.20;28.30;;;;;;20397;6877;308740;-73
2022/05/15 13:33:18;;;;;;;2.03;1.60;;;29.40;28.00;;;;;;20623;6877;118181;-72
2022/05/15 13:35:45;;;;;;;2.00;1.80;;;29.40;28.30;;;;;;20401;6877;280789;-72
2022/05/15 13:38:27;;;;;;;2.40;1.83;;;29.40;27.50;;;;;;20360;6877;313884;-72
2022/05/15 13:43:58;;;;;;;1.80;1.70;;;29.80;27.30;;;;;;20652;6862;117378;-73
2022/05/15 13:46:27;;;;;;;1.80;1.70;;;29.60;27.60;;;;;;20547;6877;117756;-74
2022/05/15 13:49:00;;;;;;;3.37;1.87;;;29.30;28.10;;;;;;20622;6862;118257;-74
2022/05/15 13:51:42;;;;;;;2.30;1.80;;;29.10;28.40;;;;;;20398;6867;338299;-74
2022/05/15 13:54:20;;;;;;;2.27;1.70;;;29.20;27.60;;;;;;20453;6851;308057;-73
2022/05/15 13:56:49;;;;;;;2.17;1.98;;;29.50;28.00;;;;;;20470;6851;308028;-73
2022/05/15 13:59:35;;;;;;;2.03;1.70;;;29.70;27.90;;;;;;20438;6851;278947;-74
2022/05/15 14:02:03;;;;;;;2.65;1.77;;;29.80;27.20;;;;;;20479;6851;307658;-73
2022/05/15 14:04:29;;;;;;;1.80;1.70;;;29.90;27.60;;;;;;20675;6851;119940;-72
2022/05/15 14:06:55;;;;;;;1.98;1.87;;;29.70;27.70;;;;;;20450;6851;308030;-72
2022/05/15 14:09:20;;;;;;;3.47;1.80;;;29.60;27.90;;;;;;20638;6859;117547;-72